createdAt,value
2023-05-12T00:00:51.271Z,13.50
2023-05-12T00:05:53.815Z,13.50
2023-05-12T00:10:55.719Z,13.40
2023-05-12T00:15:59.238Z,13.40
2023-05-12T00:21:01.230Z,13.40
2023-05-12T00:26:03.018Z,13.50
2023-05-12T00:31:05.249Z,13.50
2023-05-12T00:36:07.826Z,13.50
2023-05-12T00:41:09.701Z,13.50
2023-05-12T00:46:11.647Z,13.50
2023-05-12T00:51:15.414Z,13.50
2023-05-12T00:56:21.902Z,13.50
2023-05-12T01:01:23.972Z,13.50
2023-05-12T01:06:25.766Z,13.50
2023-05-12T01:11:27.496Z,13.50
2023-05-12T01:16:36.745Z,13.50
2023-05-12T01:21:39.290Z,13.40
2023-05-12T01:26:41.152Z,13.40
2023-05-12T01:31:43.455Z,13.50
2023-05-12T01:36:45.304Z,13.50
2023-05-12T01:41:47.462Z,13.50
2023-05-12T01:46:49.684Z,13.50
2023-05-12T01:51:51.531Z,13.40
2023-05-12T01:56:53.294Z,13.40
2023-05-12T02:01:55.184Z,13.40
2023-05-12T02:06:57.028Z,13.40
2023-05-12T02:11:58.777Z,13.40
2023-05-12T02:17:00.592Z,13.40
2023-05-12T02:22:02.412Z,13.40
2023-05-12T02:27:04.378Z,13.40
2023-05-12T02:32:06.377Z,13.40
2023-05-12T02:37:08.176Z,13.40
2023-05-12T02:42:10.067Z,13.40
2023-05-12T02:47:11.841Z,13.40
2023-05-12T02:52:13.799Z,13.40
2023-05-12T02:57:15.672Z,13.30
2023-05-12T03:02:17.469Z,13.40
2023-05-12T03:07:19.551Z,13.40
2023-05-12T03:12:21.568Z,13.30
2023-05-12T03:17:23.448Z,13.10
2023-05-12T03:22:25.584Z,13.00
2023-05-12T03:27:27.490Z,12.90
2023-05-12T03:32:29.327Z,12.90
2023-05-12T03:37:31.099Z,12.90
2023-05-12T03:42:32.887Z,12.70
2023-05-12T03:47:36.030Z,12.70
2023-05-12T03:52:38.579Z,12.80
2023-05-12T03:57:40.625Z,12.80
2023-05-12T04:02:42.509Z,12.80
2023-05-12T04:07:44.418Z,12.80
2023-05-12T04:12:46.278Z,12.80
2023-05-12T04:17:48.862Z,12.70
2023-05-12T04:22:51.634Z,12.80
2023-05-12T04:27:53.460Z,12.80
2023-05-12T04:32:56.704Z,12.70
2023-05-12T04:37:58.609Z,12.70
2023-05-12T04:43:00.451Z,12.70
2023-05-12T04:48:02.301Z,12.70
2023-05-12T04:53:04.100Z,12.60
2023-05-12T04:58:05.973Z,12.60
2023-05-12T05:03:08.048Z,12.70
2023-05-12T05:08:10.009Z,12.70
2023-05-12T05:13:11.925Z,12.70
2023-05-12T05:18:13.737Z,12.60
2023-05-12T05:23:15.829Z,12.60
2023-05-12T05:28:17.620Z,12.60
2023-05-12T05:33:19.391Z,12.50
2023-05-12T05:38:21.469Z,12.50
2023-05-12T05:43:23.446Z,12.40
2023-05-12T05:48:25.712Z,12.40
2023-05-12T05:53:27.810Z,12.40
2023-05-12T05:58:29.643Z,12.50
2023-05-12T06:03:32.001Z,12.50
2023-05-12T06:08:34.156Z,12.50
2023-05-12T06:13:36.592Z,12.50
2023-05-12T06:18:38.694Z,12.50
2023-05-12T06:23:40.598Z,12.50
2023-05-12T06:28:42.858Z,12.60
2023-05-12T06:33:44.634Z,12.60
2023-05-12T06:38:46.514Z,12.60
2023-05-12T06:43:48.568Z,12.50
2023-05-12T06:48:50.497Z,12.60
2023-05-12T06:53:52.493Z,12.60
2023-05-12T06:58:56.762Z,12.70
2023-05-12T07:03:59.588Z,12.80
2023-05-12T07:09:01.701Z,12.80
2023-05-12T07:14:03.524Z,12.90
2023-05-12T07:19:06.606Z,13.00
2023-05-12T07:24:08.555Z,13.10
2023-05-12T07:29:13.654Z,13.10
2023-05-12T07:34:16.112Z,13.20
2023-05-12T07:39:23.498Z,13.20
2023-05-12T07:44:26.161Z,13.40
2023-05-12T07:49:27.973Z,13.40
2023-05-12T07:54:29.728Z,13.50
2023-05-12T07:59:31.520Z,13.40
2023-05-12T08:04:33.436Z,13.60
2023-05-12T08:09:35.362Z,13.70
2023-05-12T08:14:37.389Z,13.60
2023-05-12T08:19:39.400Z,13.90
2023-05-12T08:24:41.342Z,14.10
2023-05-12T08:29:43.201Z,14.10
2023-05-12T08:34:45.321Z,14.10
2023-05-12T08:39:47.257Z,14.20
2023-05-12T08:44:49.754Z,14.30
2023-05-12T08:50:00.408Z,14.30
2023-05-12T08:55:03.894Z,14.40
2023-05-12T09:00:08.874Z,14.50
2023-05-12T09:05:10.820Z,14.40
2023-05-12T09:10:29.867Z,14.40
2023-05-12T09:15:42.893Z,14.40
2023-05-12T09:20:44.713Z,14.50
2023-05-12T09:25:47.141Z,14.40
2023-05-12T09:30:48.972Z,14.60
2023-05-12T09:35:50.767Z,14.60
2023-05-12T09:40:52.724Z,14.80
2023-05-12T09:45:55.651Z,14.70
2023-05-12T09:50:57.768Z,14.70
2023-05-12T09:55:59.691Z,14.70
2023-05-12T10:01:20.914Z,14.70
2023-05-12T10:06:42.149Z,14.70
2023-05-12T10:11:45.214Z,15.10
2023-05-12T10:16:47.750Z,15.50
2023-05-12T10:21:50.624Z,15.80
2023-05-12T10:26:54.836Z,15.80
2023-05-12T10:31:57.840Z,15.90
2023-05-12T10:36:59.874Z,16.10
2023-05-12T10:42:06.276Z,16.30
2023-05-12T10:47:15.159Z,16.50
2023-05-12T10:52:20.185Z,16.30
2023-05-12T10:57:22.422Z,16.10
2023-05-12T11:02:27.570Z,16.00
2023-05-12T11:07:33.115Z,15.60
2023-05-12T11:12:36.312Z,15.40
2023-05-12T11:17:42.480Z,15.10
2023-05-12T11:22:44.331Z,15.10
2023-05-12T11:27:53.168Z,15.20
2023-05-12T11:33:02.330Z,15.20
2023-05-12T11:38:16.384Z,15.30
2023-05-12T11:43:21.280Z,15.30
2023-05-12T11:48:33.917Z,15.40
2023-05-12T11:53:40.754Z,15.40
2023-05-12T11:58:52.738Z,15.60
2023-05-12T12:03:55.964Z,15.70
2023-05-12T12:09:02.446Z,16.00
2023-05-12T12:14:05.042Z,16.20
2023-05-12T12:19:07.600Z,16.30
2023-05-12T12:24:09.437Z,16.50
2023-05-12T12:29:11.235Z,16.60
2023-05-12T12:34:13.010Z,16.60
2023-05-12T12:39:15.550Z,16.70
2023-05-12T12:44:18.114Z,16.90
2023-05-12T12:49:21.838Z,17.00
2023-05-12T12:54:27.031Z,16.80
2023-05-12T12:59:29.393Z,16.50
2023-05-12T13:04:31.353Z,16.00
2023-05-12T13:09:33.937Z,16.10
2023-05-12T13:14:35.822Z,16.60
2023-05-12T13:19:38.285Z,17.40
2023-05-12T13:24:40.483Z,17.50
2023-05-12T13:29:42.395Z,18.70
2023-05-12T13:34:45.365Z,18.40
2023-05-12T13:39:47.162Z,17.90
2023-05-12T13:44:49.339Z,17.50
2023-05-12T13:49:51.213Z,17.60
2023-05-12T13:54:53.089Z,17.50
2023-05-12T13:59:57.793Z,17.50
2023-05-12T14:04:59.792Z,17.70
2023-05-12T14:10:01.829Z,17.80
2023-05-12T14:15:29.637Z,19.60
2023-05-12T14:20:25.964Z,20.80
2023-05-12T14:25:27.781Z,21.60
2023-05-12T14:30:29.984Z,21.30
2023-05-12T14:35:32.097Z,21.70
2023-05-12T14:40:33.936Z,22.40
2023-05-12T14:45:35.920Z,22.00
2023-05-12T14:50:38.080Z,21.50
2023-05-12T14:55:40.181Z,21.40
2023-05-12T15:00:42.024Z,21.00
2023-05-12T15:10:48.582Z,19.70
2023-05-12T15:15:52.937Z,19.90
2023-05-12T15:20:57.276Z,20.90
2023-05-12T15:26:03.269Z,21.20
2023-05-12T15:31:08.873Z,21.40
2023-05-12T15:36:11.590Z,21.50
2023-05-12T15:41:13.368Z,20.70
2023-05-12T15:46:15.175Z,20.90
2023-05-12T15:51:17.012Z,22.40
2023-05-12T15:56:18.770Z,20.30
2023-05-12T16:01:20.600Z,19.40
2023-05-12T16:06:22.713Z,18.90
2023-05-12T16:11:24.630Z,18.40
2023-05-12T16:16:26.543Z,18.40
2023-05-12T16:21:28.437Z,18.30
2023-05-12T16:26:30.394Z,18.30
2023-05-12T16:31:32.169Z,18.40
2023-05-12T16:36:34.071Z,18.30
2023-05-12T16:41:36.027Z,18.20
2023-05-12T16:46:40.039Z,18.10
2023-05-12T16:51:43.427Z,18.20
2023-05-12T16:56:45.224Z,18.20
2023-05-12T17:01:47.275Z,18.10
2023-05-12T17:06:50.145Z,17.90
2023-05-12T17:11:51.932Z,17.90
2023-05-12T17:16:53.706Z,17.90
2023-05-12T17:21:55.622Z,17.80
2023-05-12T17:26:57.667Z,17.70
2023-05-12T17:32:00.068Z,17.60
2023-05-12T17:37:04.037Z,17.60
2023-05-12T17:42:06.373Z,17.50
2023-05-12T17:47:08.330Z,17.40
2023-05-12T17:52:10.226Z,17.40
2023-05-12T17:57:12.211Z,17.30
2023-05-12T18:02:14.236Z,17.20
2023-05-12T18:07:16.031Z,17.20
2023-05-12T18:12:18.491Z,17.10
2023-05-12T18:17:20.849Z,17.00
2023-05-12T18:22:22.880Z,17.00
2023-05-12T18:27:24.671Z,16.90
2023-05-12T18:32:26.570Z,16.90
2023-05-12T18:37:28.367Z,16.80
2023-05-12T18:42:30.142Z,16.70
2023-05-12T18:47:32.041Z,16.60
2023-05-12T18:52:33.852Z,16.40
2023-05-12T18:57:35.646Z,16.20
2023-05-12T19:02:37.704Z,16.10
2023-05-12T19:07:39.646Z,16.00
2023-05-12T19:12:41.585Z,16.00
2023-05-12T19:17:43.579Z,16.00
2023-05-12T19:22:46.465Z,16.00
2023-05-12T19:27:48.258Z,15.90
2023-05-12T19:32:50.185Z,16.10
2023-05-12T19:37:52.089Z,16.00
2023-05-12T19:42:55.161Z,15.90
2023-05-12T19:47:57.261Z,15.80
2023-05-12T19:52:59.172Z,15.80
2023-05-12T19:58:01.980Z,15.70
2023-05-12T20:03:06.750Z,15.80
2023-05-12T20:08:08.857Z,15.80
2023-05-12T20:13:11.734Z,15.70
2023-05-12T20:18:21.458Z,15.60
2023-05-12T20:23:23.370Z,15.50
2023-05-12T20:28:25.276Z,15.50
2023-05-12T20:33:27.176Z,15.40
2023-05-12T20:38:28.976Z,15.50
2023-05-12T20:43:31.042Z,15.40
2023-05-12T20:48:33.040Z,15.40
2023-05-12T20:53:36.552Z,15.40
2023-05-12T20:58:38.334Z,15.30
2023-05-12T21:03:40.216Z,15.30
2023-05-12T21:08:42.059Z,15.30
2023-05-12T21:13:46.023Z,15.30
2023-05-12T21:18:47.871Z,15.30
2023-05-12T21:23:49.693Z,15.20
2023-05-12T21:28:51.631Z,15.20
2023-05-12T21:33:53.654Z,15.00
2023-05-12T21:38:55.522Z,15.00
2023-05-12T21:43:57.340Z,14.90
2023-05-12T21:48:59.220Z,14.90
2023-05-12T21:54:01.217Z,14.60
2023-05-12T21:59:03.124Z,14.60
2023-05-12T22:04:05.578Z,14.50
2023-05-12T22:09:07.793Z,14.50
2023-05-12T22:14:09.773Z,14.30
2023-05-12T22:19:12.008Z,14.30
2023-05-12T22:24:13.853Z,14.20
2023-05-12T22:29:15.632Z,14.10
2023-05-12T22:34:17.450Z,14.00
2023-05-12T22:39:19.794Z,13.80
2023-05-12T22:44:21.596Z,13.80
2023-05-12T22:49:23.662Z,13.60
2023-05-12T22:54:25.529Z,13.70
2023-05-12T22:59:27.310Z,13.50
2023-05-12T23:04:29.228Z,13.60
2023-05-12T23:09:30.994Z,13.60
2023-05-12T23:14:32.929Z,13.60
2023-05-12T23:19:34.803Z,13.50
2023-05-12T23:24:36.659Z,13.50
2023-05-12T23:29:38.383Z,13.50
2023-05-12T23:34:42.920Z,13.40
2023-05-12T23:39:45.005Z,13.30
2023-05-12T23:44:46.795Z,13.20
2023-05-12T23:49:48.572Z,13.20
2023-05-12T23:54:51.719Z,13.10
2023-05-12T23:59:53.473Z,12.90
